createdAt,value
2022-08-30T00:00:03.112Z,16.56
2022-08-30T00:02:35.967Z,16.51
2022-08-30T00:05:06.893Z,16.48
2022-08-30T00:07:37.314Z,16.48
2022-08-30T00:10:08.466Z,16.47
2022-08-30T00:12:39.456Z,16.54
2022-08-30T00:15:11.053Z,16.53
2022-08-30T00:17:43.590Z,16.58
2022-08-30T00:20:18.219Z,16.58
2022-08-30T00:22:49.401Z,16.58
2022-08-30T00:25:20.631Z,16.58
2022-08-30T00:27:51.202Z,16.62
2022-08-30T00:30:22.416Z,16.65
2022-08-30T00:32:54.016Z,16.60
2022-08-30T00:35:25.121Z,16.58
2022-08-30T00:37:57.210Z,16.57
2022-08-30T00:40:28.861Z,16.52
2022-08-30T00:43:05.790Z,16.52
2022-08-30T00:45:36.425Z,16.48
2022-08-30T00:48:07.974Z,16.44
2022-08-30T00:50:41.337Z,16.50
2022-08-30T00:53:14.683Z,16.40
2022-08-30T00:55:45.688Z,16.40
2022-08-30T00:58:20.814Z,16.40
2022-08-30T01:00:54.378Z,16.39
2022-08-30T01:03:25.305Z,16.38
2022-08-30T01:05:56.999Z,16.42
2022-08-30T01:08:28.854Z,16.40
2022-08-30T01:11:00.306Z,16.34
2022-08-30T01:13:32.160Z,16.33
2022-08-30T01:16:03.431Z,16.31
2022-08-30T01:18:34.244Z,16.27
2022-08-30T01:21:24.545Z,16.24
2022-08-30T01:23:57.597Z,16.20
2022-08-30T01:26:30.790Z,16.19
2022-08-30T01:29:07.628Z,16.15
2022-08-30T01:31:38.076Z,16.15
2022-08-30T01:34:08.976Z,16.16
2022-08-30T01:36:44.885Z,16.17
2022-08-30T01:39:16.987Z,16.16
2022-08-30T01:41:48.042Z,16.15
2022-08-30T01:44:18.583Z,16.15
2022-08-30T01:46:49.137Z,16.16
2022-08-30T01:49:27.428Z,16.13
2022-08-30T01:52:00.254Z,16.21
2022-08-30T01:54:24.866Z,16.18
2022-08-30T01:56:57.074Z,16.21
2022-08-30T01:59:27.660Z,16.17
2022-08-30T02:01:58.086Z,16.16
2022-08-30T02:04:28.525Z,16.05
2022-08-30T02:06:59.040Z,15.99
2022-08-30T02:09:29.448Z,15.94
2022-08-30T02:11:59.795Z,15.95
2022-08-30T02:14:30.212Z,15.94
2022-08-30T02:17:01.608Z,15.90
2022-08-30T02:19:32.173Z,15.85
2022-08-30T02:22:02.854Z,15.87
2022-08-30T02:24:33.895Z,15.84
2022-08-30T02:27:04.660Z,15.80
2022-08-30T02:29:36.570Z,15.74
2022-08-30T02:32:07.148Z,15.77
2022-08-30T02:34:37.656Z,15.71
2022-08-30T02:37:09.066Z,15.71
2022-08-30T02:39:39.613Z,15.72
2022-08-30T02:42:09.944Z,15.63
2022-08-30T02:44:40.312Z,15.62
2022-08-30T02:47:10.646Z,15.60
2022-08-30T02:49:41.103Z,15.64
2022-08-30T02:52:11.530Z,15.66
2022-08-30T02:54:41.965Z,15.59
2022-08-30T02:57:19.996Z,15.62
2022-08-30T02:59:47.385Z,15.66
2022-08-30T03:02:17.964Z,15.56
2022-08-30T03:04:48.971Z,15.54
2022-08-30T03:07:19.644Z,15.50
2022-08-30T03:09:50.026Z,15.46
2022-08-30T03:12:20.541Z,15.44
2022-08-30T03:14:50.900Z,15.42
2022-08-30T03:17:21.431Z,15.45
2022-08-30T03:19:51.874Z,15.39
2022-08-30T03:22:22.758Z,15.41
2022-08-30T03:24:53.047Z,15.39
2022-08-30T03:27:23.453Z,15.42
2022-08-30T03:29:53.874Z,15.38
2022-08-30T03:32:25.313Z,15.38
2022-08-30T03:34:55.745Z,15.40
2022-08-30T03:37:27.613Z,15.42
2022-08-30T03:39:58.560Z,15.42
2022-08-30T03:42:29.031Z,15.47
2022-08-30T03:45:01.108Z,15.53
2022-08-30T03:47:31.787Z,15.58
2022-08-30T03:50:02.882Z,15.58
2022-08-30T03:52:33.416Z,15.54
2022-08-30T03:55:04.005Z,15.54
2022-08-30T03:57:34.600Z,15.57
2022-08-30T04:00:07.639Z,15.50
2022-08-30T04:02:38.128Z,15.52
2022-08-30T04:05:10.561Z,15.54
2022-08-30T04:07:40.927Z,15.53
2022-08-30T04:10:12.612Z,15.46
2022-08-30T04:12:47.453Z,15.45
2022-08-30T04:15:17.018Z,15.45
2022-08-30T04:17:48.143Z,15.42
2022-08-30T04:20:18.650Z,15.41
2022-08-30T04:22:48.978Z,15.36
2022-08-30T04:25:19.733Z,15.32
2022-08-30T04:27:50.551Z,15.31
2022-08-30T04:30:21.420Z,15.33
2022-08-30T04:32:54.500Z,15.29
2022-08-30T04:35:24.029Z,15.26
2022-08-30T04:37:54.554Z,15.26
2022-08-30T04:40:25.050Z,15.30
2022-08-30T04:42:56.183Z,15.33
2022-08-30T04:45:28.248Z,15.38
2022-08-30T04:47:58.838Z,15.34
2022-08-30T04:50:29.266Z,15.32
2022-08-30T04:52:59.888Z,15.33
2022-08-30T04:55:30.414Z,15.38
2022-08-30T04:58:01.018Z,15.48
2022-08-30T05:00:31.958Z,15.43
2022-08-30T05:03:02.522Z,15.50
2022-08-30T05:05:42.528Z,15.49
2022-08-30T05:08:15.106Z,15.51
2022-08-30T05:10:49.088Z,15.46
2022-08-30T05:13:21.353Z,15.44
2022-08-30T05:15:54.294Z,15.51
2022-08-30T05:18:24.961Z,15.50
2022-08-30T05:21:07.638Z,15.60
2022-08-30T05:23:41.627Z,15.64
2022-08-30T05:26:15.297Z,15.70
2022-08-30T05:28:46.199Z,15.80
2022-08-30T05:31:19.779Z,15.87
2022-08-30T05:33:51.322Z,15.91
2022-08-30T05:36:24.570Z,16.00
2022-08-30T05:38:55.719Z,16.09
2022-08-30T05:41:27.229Z,16.19
2022-08-30T05:44:00.159Z,16.31
2022-08-30T05:49:08.253Z,16.35
2022-08-30T05:51:41.026Z,16.43
2022-08-30T05:54:13.430Z,16.50
2022-08-30T05:56:46.416Z,16.56
2022-08-30T05:59:17.040Z,16.62
2022-08-30T06:01:48.373Z,16.65
2022-08-30T06:04:18.935Z,16.66
2022-08-30T06:06:49.452Z,16.76
2022-08-30T06:09:20.165Z,16.80
2022-08-30T06:11:50.695Z,16.84
2022-08-30T06:14:21.223Z,16.94
2022-08-30T06:16:52.012Z,16.95
2022-08-30T06:19:23.234Z,17.08
2022-08-30T06:21:53.648Z,17.15
2022-08-30T06:24:35.697Z,17.15
2022-08-30T06:26:56.190Z,17.20
2022-08-30T06:29:26.542Z,17.22
2022-08-30T06:31:59.101Z,17.29
2022-08-30T06:34:30.208Z,17.33
2022-08-30T06:37:00.703Z,17.38
2022-08-30T06:39:31.263Z,17.43
2022-08-30T06:42:01.565Z,17.43
2022-08-30T06:44:31.993Z,17.52
2022-08-30T06:47:02.578Z,17.63
2022-08-30T06:49:32.984Z,17.63
2022-08-30T06:52:04.577Z,17.74
2022-08-30T06:54:36.020Z,17.73
2022-08-30T06:57:06.490Z,17.79
2022-08-30T06:59:37.054Z,17.84
2022-08-30T07:02:08.460Z,17.77
2022-08-30T07:04:38.767Z,17.76
2022-08-30T07:07:11.320Z,17.77
2022-08-30T07:09:43.569Z,17.80
2022-08-30T07:12:15.760Z,17.89
2022-08-30T07:14:46.062Z,18.01
2022-08-30T07:17:35.085Z,18.06
2022-08-30T07:20:07.298Z,18.22
2022-08-30T07:22:37.655Z,18.32
2022-08-30T07:25:08.236Z,18.44
2022-08-30T07:27:39.029Z,18.55
2022-08-30T07:30:10.590Z,18.67
2022-08-30T07:32:40.939Z,18.70
2022-08-30T07:35:11.361Z,18.78
2022-08-30T07:37:41.879Z,18.72
2022-08-30T07:40:14.331Z,18.75
2022-08-30T07:42:44.929Z,18.75
2022-08-30T07:45:15.256Z,18.68
2022-08-30T07:47:46.352Z,18.63
2022-08-30T07:50:16.842Z,18.64
2022-08-30T07:52:47.265Z,18.53
2022-08-30T07:55:17.624Z,18.49
2022-08-30T07:57:48.060Z,18.39
2022-08-30T08:00:18.731Z,18.37
2022-08-30T08:02:49.214Z,18.54
2022-08-30T08:05:23.124Z,18.75
2022-08-30T08:07:51.918Z,18.86
2022-08-30T08:10:22.623Z,18.99
2022-08-30T08:12:52.981Z,19.16
2022-08-30T08:15:26.334Z,19.22
2022-08-30T08:17:57.031Z,19.25
2022-08-30T08:20:27.660Z,19.37
2022-08-30T08:22:58.036Z,19.70
2022-08-30T08:25:29.376Z,19.99
2022-08-30T08:28:01.248Z,20.32
2022-08-30T08:30:34.675Z,20.66
2022-08-30T08:33:06.121Z,20.90
2022-08-30T08:35:36.490Z,20.85
2022-08-30T08:38:06.982Z,20.86
2022-08-30T08:40:43.584Z,20.71
2022-08-30T08:43:17.002Z,20.53
2022-08-30T08:46:02.465Z,20.54
2022-08-30T08:49:05.512Z,20.59
2022-08-30T08:51:43.483Z,20.56
2022-08-30T08:54:22.647Z,20.50
2022-08-30T08:56:53.998Z,20.42
2022-08-30T08:59:24.928Z,20.27
2022-08-30T09:02:02.140Z,20.16
2022-08-30T09:04:35.691Z,20.06
2022-08-30T09:07:12.222Z,19.88
2022-08-30T09:09:43.763Z,19.76
2022-08-30T09:12:14.824Z,19.62
2022-08-30T09:14:51.173Z,19.59
2022-08-30T09:17:24.510Z,19.60
2022-08-30T09:19:58.689Z,19.83
2022-08-30T09:22:38.161Z,20.08
2022-08-30T09:25:14.637Z,20.25
2022-08-30T09:27:47.487Z,20.32
2022-08-30T09:30:31.581Z,20.34
2022-08-30T09:33:05.519Z,20.40
2022-08-30T09:35:41.640Z,20.44
2022-08-30T09:38:14.768Z,20.47
2022-08-30T09:40:57.510Z,20.54
2022-08-30T09:43:33.786Z,20.73
2022-08-30T09:46:07.363Z,20.92
2022-08-30T09:48:44.160Z,21.26
2022-08-30T09:51:17.643Z,21.63
2022-08-30T09:54:17.698Z,22.06
2022-08-30T09:56:54.647Z,22.20
2022-08-30T09:59:34.070Z,22.33
2022-08-30T10:02:22.771Z,22.48
2022-08-30T10:04:59.228Z,22.48
2022-08-30T10:07:47.757Z,22.50
2022-08-30T10:10:33.014Z,22.22
2022-08-30T10:13:23.301Z,22.20
2022-08-30T10:16:02.600Z,22.18
2022-08-30T10:18:36.477Z,22.04
2022-08-30T10:21:19.176Z,21.89
2022-08-30T10:23:54.312Z,21.79
2022-08-30T10:26:27.917Z,21.74
2022-08-30T10:29:06.235Z,21.68
2022-08-30T10:31:48.742Z,21.71
2022-08-30T10:34:34.258Z,21.83
2022-08-30T10:37:13.945Z,22.06
2022-08-30T10:39:52.009Z,22.34
2022-08-30T10:42:26.740Z,22.53
2022-08-30T10:45:05.811Z,22.75
2022-08-30T10:47:41.889Z,23.28
2022-08-30T10:50:21.620Z,23.38
2022-08-30T10:53:10.055Z,23.62
2022-08-30T10:55:56.053Z,23.65
2022-08-30T10:58:26.602Z,23.94
2022-08-30T11:01:33.656Z,24.04
2022-08-30T11:04:18.681Z,23.70
2022-08-30T11:07:10.361Z,23.88
2022-08-30T11:10:18.429Z,23.53
2022-08-30T11:13:07.014Z,23.70
2022-08-30T11:15:40.376Z,23.64
2022-08-30T11:18:13.633Z,23.72
2022-08-30T11:20:47.376Z,23.79
2022-08-30T11:23:23.442Z,23.95
2022-08-30T11:26:01.833Z,23.94
2022-08-30T11:28:39.436Z,24.02
2022-08-30T11:31:12.474Z,24.12
2022-08-30T11:33:52.454Z,24.21
2022-08-30T11:36:37.697Z,24.24
2022-08-30T11:39:11.460Z,24.52
2022-08-30T11:41:47.797Z,24.31
2022-08-30T11:44:25.596Z,24.71
2022-08-30T11:47:05.599Z,24.86
2022-08-30T11:49:39.294Z,24.70
2022-08-30T11:52:35.980Z,24.74
2022-08-30T11:55:36.566Z,24.81
2022-08-30T11:58:28.359Z,25.30
2022-08-30T12:01:50.015Z,25.46
2022-08-30T12:04:01.248Z,25.49
2022-08-30T12:06:49.855Z,26.02
2022-08-30T12:09:30.261Z,25.34
2022-08-30T12:12:28.263Z,25.04
2022-08-30T12:15:00.341Z,24.56
2022-08-30T12:18:08.534Z,24.59
2022-08-30T12:20:50.187Z,24.16
2022-08-30T12:23:35.975Z,23.90
2022-08-30T12:26:13.828Z,24.07
2022-08-30T12:28:46.492Z,24.11
2022-08-30T12:31:20.066Z,23.91
2022-08-30T12:33:56.613Z,24.14
2022-08-30T12:36:39.498Z,24.03
2022-08-30T12:39:12.998Z,24.09
2022-08-30T12:41:44.487Z,24.22
2022-08-30T12:44:23.604Z,24.03
2022-08-30T12:46:59.623Z,23.93
2022-08-30T12:49:32.266Z,23.91
2022-08-30T12:52:31.627Z,23.89
2022-08-30T12:55:20.084Z,23.87
2022-08-30T12:58:00.860Z,23.89
2022-08-30T13:00:34.674Z,23.95
2022-08-30T13:03:16.268Z,24.32
2022-08-30T13:05:48.046Z,24.56
2022-08-30T13:08:22.414Z,24.44
2022-08-30T13:11:08.971Z,24.38
2022-08-30T13:13:45.342Z,24.52
2022-08-30T13:16:26.695Z,24.60
2022-08-30T13:19:18.197Z,24.60
2022-08-30T13:21:53.821Z,24.79
2022-08-30T13:24:25.757Z,24.81
2022-08-30T13:26:59.325Z,24.89
2022-08-30T13:29:31.939Z,24.92
2022-08-30T13:32:02.441Z,24.61
2022-08-30T13:34:34.608Z,24.64
2022-08-30T13:37:07.490Z,24.62
2022-08-30T13:39:40.776Z,24.83
2022-08-30T13:44:43.785Z,24.58
2022-08-30T13:49:48.065Z,24.40
2022-08-30T13:52:25.716Z,24.38
2022-08-30T13:54:58.093Z,24.34
2022-08-30T14:00:06.663Z,25.19
2022-08-30T14:02:44.346Z,25.52
2022-08-30T14:05:20.511Z,25.78
2022-08-30T14:07:42.270Z,25.54
2022-08-30T14:10:30.854Z,25.14
2022-08-30T14:12:57.439Z,24.95
2022-08-30T14:15:19.251Z,24.79
2022-08-30T14:17:49.753Z,24.65
2022-08-30T14:20:21.558Z,24.46
2022-08-30T14:22:52.164Z,24.31
2022-08-30T14:25:22.852Z,24.61
2022-08-30T14:27:53.256Z,24.15
2022-08-30T14:30:24.971Z,23.90
2022-08-30T14:32:55.680Z,23.81
2022-08-30T14:35:26.361Z,23.49
2022-08-30T14:37:58.557Z,23.50
2022-08-30T14:40:29.526Z,23.32
2022-08-30T14:43:00.352Z,23.24
2022-08-30T14:45:30.815Z,23.28
2022-08-30T14:48:02.950Z,23.26
2022-08-30T14:50:35.072Z,23.17
2022-08-30T14:53:06.554Z,23.08
2022-08-30T14:55:37.571Z,22.96
2022-08-30T14:58:10.150Z,22.94
2022-08-30T15:00:41.441Z,22.85
2022-08-30T15:03:15.483Z,23.06
2022-08-30T15:05:53.207Z,22.91
2022-08-30T15:08:23.790Z,22.80
2022-08-30T15:10:55.933Z,22.80
2022-08-30T15:13:27.540Z,22.89
2022-08-30T15:15:58.142Z,22.77
2022-08-30T15:18:28.677Z,22.69
2022-08-30T15:21:00.387Z,22.58
2022-08-30T15:23:30.901Z,22.44
2022-08-30T15:26:01.873Z,22.34
2022-08-30T15:28:32.370Z,22.46
2022-08-30T15:31:06.250Z,22.42
2022-08-30T15:33:34.960Z,22.24
2022-08-30T15:36:07.647Z,22.19
2022-08-30T15:38:38.215Z,22.09
2022-08-30T15:41:12.405Z,22.06
2022-08-30T15:43:42.936Z,22.08
2022-08-30T15:46:29.529Z,22.10
2022-08-30T15:49:05.614Z,21.96
2022-08-30T15:51:41.186Z,21.88
2022-08-30T15:54:13.331Z,21.86
2022-08-30T15:56:43.964Z,21.93
2022-08-30T15:59:17.483Z,21.76
2022-08-30T16:01:49.245Z,21.84
2022-08-30T16:04:19.739Z,21.75
2022-08-30T16:06:51.035Z,21.64
2022-08-30T16:09:23.616Z,21.67
2022-08-30T16:11:54.200Z,21.78
2022-08-30T16:14:25.768Z,21.70
2022-08-30T16:16:56.516Z,21.69
2022-08-30T16:19:27.430Z,21.80
2022-08-30T16:21:59.696Z,21.64
2022-08-30T16:24:30.068Z,21.33
2022-08-30T16:27:00.586Z,21.28
2022-08-30T16:29:31.179Z,21.23
2022-08-30T16:32:01.647Z,21.10
2022-08-30T16:34:33.401Z,21.18
2022-08-30T16:37:04.062Z,21.60
2022-08-30T16:39:35.036Z,21.92
2022-08-30T16:42:06.784Z,21.80
2022-08-30T16:44:37.325Z,21.60
2022-08-30T16:47:12.773Z,21.22
2022-08-30T16:49:42.691Z,20.99
2022-08-30T16:52:14.424Z,20.80
2022-08-30T16:54:45.136Z,20.66
2022-08-30T16:57:17.040Z,20.40
2022-08-30T16:59:49.561Z,20.22
2022-08-30T17:02:19.632Z,20.14
2022-08-30T17:04:53.089Z,20.09
2022-08-30T17:07:22.765Z,19.95
2022-08-30T17:09:53.332Z,19.84
2022-08-30T17:12:24.145Z,19.78
2022-08-30T17:14:54.589Z,19.75
2022-08-30T17:17:25.046Z,19.77
2022-08-30T17:19:55.515Z,19.76
2022-08-30T17:22:25.960Z,19.72
2022-08-30T17:24:56.691Z,19.66
2022-08-30T17:27:29.652Z,19.62
2022-08-30T17:30:00.361Z,19.70
2022-08-30T17:32:30.919Z,19.61
2022-08-30T17:35:01.649Z,19.63
2022-08-30T17:37:33.249Z,19.62
2022-08-30T17:40:06.429Z,19.52
2022-08-30T17:42:38.741Z,19.42
2022-08-30T17:45:12.141Z,19.30
2022-08-30T17:47:42.963Z,19.27
2022-08-30T17:50:14.555Z,19.24
2022-08-30T17:52:45.261Z,19.11
2022-08-30T17:55:15.750Z,19.13
2022-08-30T17:57:46.072Z,19.02
2022-08-30T18:00:16.904Z,18.92
2022-08-30T18:02:48.884Z,18.84
2022-08-30T18:05:24.404Z,18.77
2022-08-30T18:07:52.964Z,18.77
2022-08-30T18:10:30.506Z,18.69
2022-08-30T18:12:55.934Z,18.74
2022-08-30T18:15:26.543Z,18.56
2022-08-30T18:17:57.410Z,18.51
2022-08-30T18:20:28.138Z,18.50
2022-08-30T18:23:00.596Z,18.45
2022-08-30T18:25:31.127Z,18.40
2022-08-30T18:28:01.671Z,18.42
2022-08-30T18:33:06.670Z,18.29
2022-08-30T18:35:38.887Z,18.23
2022-08-30T18:38:11.193Z,18.24
2022-08-30T18:40:41.643Z,18.15
2022-08-30T18:43:12.685Z,18.10
2022-08-30T18:45:46.257Z,18.04
2022-08-30T18:48:19.444Z,18.02
2022-08-30T18:50:50.470Z,17.96
2022-08-30T18:53:28.752Z,17.97
2022-08-30T18:55:53.401Z,17.96
2022-08-30T18:58:25.398Z,17.96
2022-08-30T19:00:56.952Z,17.95
2022-08-30T19:03:27.661Z,17.88
2022-08-30T19:06:04.946Z,17.84
2022-08-30T19:08:36.630Z,17.81
2022-08-30T19:11:09.469Z,17.75
2022-08-30T19:13:40.242Z,17.75
2022-08-30T19:18:44.642Z,17.68
2022-08-30T19:21:15.248Z,17.66
2022-08-30T19:23:50.691Z,17.63
2022-08-30T19:26:19.757Z,17.63
2022-08-30T19:28:50.235Z,17.63
2022-08-30T19:31:23.082Z,17.66
2022-08-30T19:33:53.722Z,17.66
2022-08-30T19:36:24.531Z,17.57
2022-08-30T19:38:57.299Z,17.54
2022-08-30T19:41:28.356Z,17.50
2022-08-30T19:44:01.208Z,17.46
2022-08-30T19:46:32.671Z,17.46
2022-08-30T19:49:04.773Z,17.41
2022-08-30T19:51:35.146Z,17.41
2022-08-30T19:54:07.035Z,17.38
2022-08-30T19:56:38.451Z,17.32
2022-08-30T19:59:08.813Z,17.32
2022-08-30T20:01:41.186Z,17.30
2022-08-30T20:04:12.678Z,17.26
2022-08-30T20:06:44.764Z,17.22
2022-08-30T20:09:15.605Z,17.16
2022-08-30T20:11:52.525Z,17.16
2022-08-30T20:14:19.835Z,17.30
2022-08-30T20:16:51.964Z,17.14
2022-08-30T20:19:29.210Z,17.11
2022-08-30T20:21:54.649Z,17.04
2022-08-30T20:24:28.069Z,18.34
2022-08-30T20:24:28.291Z,17.00
2022-08-30T20:24:32.326Z,17.70
2022-08-30T20:26:59.192Z,17.04
2022-08-30T20:29:29.732Z,16.92
2022-08-30T20:32:01.619Z,16.90
2022-08-30T20:34:32.204Z,16.89
2022-08-30T20:37:02.594Z,16.89
2022-08-30T20:39:33.086Z,16.87
2022-08-30T20:42:04.780Z,16.86
2022-08-30T20:44:35.257Z,16.85
2022-08-30T20:47:07.152Z,16.78
2022-08-30T20:49:38.679Z,16.76
2022-08-30T20:52:09.753Z,16.83
2022-08-30T20:54:40.831Z,16.72
2022-08-30T20:57:11.801Z,16.71
2022-08-30T20:59:42.834Z,16.66
2022-08-30T21:02:13.325Z,16.62
2022-08-30T21:04:45.665Z,16.59
2022-08-30T21:07:16.398Z,16.55
2022-08-30T21:09:47.032Z,16.46
2022-08-30T21:12:17.433Z,16.42
2022-08-30T21:14:47.886Z,16.40
2022-08-30T21:17:18.595Z,16.44
2022-08-30T21:19:48.984Z,16.38
2022-08-30T21:22:19.404Z,16.31
2022-08-30T21:24:51.679Z,16.26
2022-08-30T21:27:22.146Z,16.26
2022-08-30T21:29:52.583Z,16.23
2022-08-30T21:32:22.995Z,16.24
2022-08-30T21:35:10.943Z,16.26
2022-08-30T21:37:41.393Z,16.31
2022-08-30T21:40:14.915Z,16.32
2022-08-30T21:42:46.063Z,16.38
2022-08-30T21:45:16.657Z,16.43
2022-08-30T21:47:47.269Z,16.44
2022-08-30T21:50:17.912Z,16.50
2022-08-30T21:52:48.405Z,16.45
2022-08-30T21:55:19.097Z,16.49
2022-08-30T21:57:49.811Z,16.58
2022-08-30T22:00:22.865Z,16.60
2022-08-30T22:02:53.505Z,16.58
2022-08-30T22:05:23.999Z,16.56
2022-08-30T22:07:54.511Z,16.60
2022-08-30T22:10:25.265Z,16.56
2022-08-30T22:12:55.865Z,16.53
2022-08-30T22:15:26.937Z,16.48
2022-08-30T22:17:57.498Z,16.43
2022-08-30T22:20:30.412Z,16.44
2022-08-30T22:23:00.234Z,16.43
2022-08-30T22:25:31.281Z,16.46
2022-08-30T22:28:01.711Z,16.46
2022-08-30T22:30:33.844Z,16.38
2022-08-30T22:33:04.284Z,16.32
2022-08-30T22:35:38.935Z,16.21
2022-08-30T22:38:10.180Z,16.17
2022-08-30T22:40:46.403Z,16.06
2022-08-30T22:43:17.676Z,16.04
2022-08-30T22:45:48.236Z,15.98
2022-08-30T22:48:18.927Z,15.89
2022-08-30T22:50:49.376Z,15.91
2022-08-30T22:53:20.123Z,15.94
2022-08-30T22:55:50.561Z,15.93
2022-08-30T22:58:20.980Z,15.86
2022-08-30T23:00:55.115Z,15.71
2022-08-30T23:03:24.186Z,15.74
2022-08-30T23:05:54.781Z,15.70
2022-08-30T23:08:25.860Z,15.76
2022-08-30T23:10:57.854Z,15.64
2022-08-30T23:13:28.376Z,15.67
2022-08-30T23:15:59.020Z,15.60
2022-08-30T23:18:31.179Z,15.65
2022-08-30T23:21:11.119Z,15.59
2022-08-30T23:24:02.089Z,15.56
2022-08-30T23:26:51.230Z,15.57
2022-08-30T23:29:39.084Z,15.54
2022-08-30T23:32:27.922Z,15.50
2022-08-30T23:35:16.341Z,15.48
2022-08-30T23:38:04.689Z,15.46
2022-08-30T23:40:53.465Z,15.45
2022-08-30T23:43:41.808Z,15.38
2022-08-30T23:46:31.510Z,15.34
2022-08-30T23:49:20.139Z,15.36
2022-08-30T23:52:08.220Z,15.30
2022-08-30T23:54:57.449Z,15.28
2022-08-30T23:57:46.714Z,15.30
